Current Weather

Chicago O'Hare International

Chicago, Illinois (KORD)

Report from: Friday, April 19, 2024 3:51 AM CDT
Current time: Friday, April 19, 2024 4:29 AM CDT

Nearby weather – Weather history – Daily summaries
Weather forecast

Temperature7.8°C (46.0°F)
Wind chill4.4°C (39.9°F)
Dew point3.3°C (37.9°F)
Winds 12 kts (6.2 m/s, 13.8 mph) Northwest (320°)
Wind gusts 19 kts (9.8 m/s, 21.9 mph)
Visibility10 mi. (16.1 km)
Clouds Few clouds 6,000 ft. (1,829 m)
Altimeter30.03 in.Hg (1017 mB)
Relative humidity73 %
Density altitude-881 ft. (-269 m)
Sea-level pressure101.7 kPa (1017 mB, 30.04 in.Hg)
Remarks Automated weather observing station with precipitation discriminator
Pressure rising more quickly
Flight conditions Visual Meteorological Conditions
Raw dataKORD 190851Z 32012G19KT 10SM FEW060 08/03 A3003 RMK AO2 SLP171 T00780033 53016
An error has occurred. This application may no longer respond until reloaded. Reload 🗙